sensor_id;sensor_type;location;lat;lon;timestamp;P1;durP1;ratioP1;P2;durP2;ratioP2
58468;SDS011;44257;44.804;10.220;2023-01-01T00:01:11;30.75;;;16.25;;
58468;SDS011;44257;44.804;10.220;2023-01-01T00:03:39;34.92;;;17.83;;
58468;SDS011;44257;44.804;10.220;2023-01-01T00:06:09;34.47;;;18.85;;
58468;SDS011;44257;44.804;10.220;2023-01-01T00:08:37;31.13;;;15.75;;
58468;SDS011;44257;44.804;10.220;2023-01-01T00:11:04;32.47;;;16.30;;
58468;SDS011;44257;44.804;10.220;2023-01-01T00:13:31;27.58;;;14.77;;
58468;SDS011;44257;44.804;10.220;2023-01-01T00:16:04;27.88;;;16.48;;
58468;SDS011;44257;44.804;10.220;2023-01-01T00:18:31;34.47;;;17.00;;
58468;SDS011;44257;44.804;10.220;2023-01-01T00:21:01;26.55;;;15.90;;
58468;SDS011;44257;44.804;10.220;2023-01-01T00:23:31;29.58;;;15.85;;
58468;SDS011;44257;44.804;10.220;2023-01-01T00:25:58;32.75;;;17.27;;
58468;SDS011;44257;44.804;10.220;2023-01-01T00:28:25;28.33;;;15.68;;
58468;SDS011;44257;44.804;10.220;2023-01-01T00:30:51;31.02;;;16.15;;
58468;SDS011;44257;44.804;10.220;2023-01-01T00:33:17;35.13;;;16.48;;
58468;SDS011;44257;44.804;10.220;2023-01-01T00:35:43;28.35;;;16.15;;
58468;SDS011;44257;44.804;10.220;2023-01-01T00:38:08;28.95;;;15.43;;
58468;SDS011;44257;44.804;10.220;2023-01-01T00:40:34;25.95;;;15.65;;
58468;SDS011;44257;44.804;10.220;2023-01-01T00:43:00;33.85;;;16.20;;
58468;SDS011;44257;44.804;10.220;2023-01-01T00:45:26;30.52;;;15.50;;
58468;SDS011;44257;44.804;10.220;2023-01-01T00:47:52;28.23;;;14.90;;
58468;SDS011;44257;44.804;10.220;2023-01-01T00:50:19;31.02;;;15.30;;
58468;SDS011;44257;44.804;10.220;2023-01-01T00:52:46;27.05;;;13.63;;
58468;SDS011;44257;44.804;10.220;2023-01-01T00:55:13;32.47;;;14.43;;
58468;SDS011;44257;44.804;10.220;2023-01-01T00:57:39;21.95;;;12.88;;
58468;SDS011;44257;44.804;10.220;2023-01-01T01:00:05;29.60;;;15.00;;
58468;SDS011;44257;44.804;10.220;2023-01-01T01:02:32;31.92;;;17.73;;
58468;SDS011;44257;44.804;10.220;2023-01-01T01:04:58;29.25;;;15.50;;
58468;SDS011;44257;44.804;10.220;2023-01-01T01:07:25;34.30;;;13.63;;
58468;SDS011;44257;44.804;10.220;2023-01-01T01:09:51;35.63;;;15.18;;
58468;SDS011;44257;44.804;10.220;2023-01-01T01:12:17;30.17;;;15.95;;
58468;SDS011;44257;44.804;10.220;2023-01-01T01:14:43;27.15;;;12.90;;
58468;SDS011;44257;44.804;10.220;2023-01-01T01:17:09;30.08;;;13.65;;
58468;SDS011;44257;44.804;10.220;2023-01-01T01:19:35;27.98;;;15.18;;
58468;SDS011;44257;44.804;10.220;2023-01-01T01:22:00;25.98;;;13.88;;
58468;SDS011;44257;44.804;10.220;2023-01-01T01:24:27;30.88;;;14.20;;
58468;SDS011;44257;44.804;10.220;2023-01-01T01:26:53;29.10;;;13.48;;
58468;SDS011;44257;44.804;10.220;2023-01-01T01:29:19;27.95;;;15.35;;
58468;SDS011;44257;44.804;10.220;2023-01-01T01:31:45;31.05;;;13.02;;
58468;SDS011;44257;44.804;10.220;2023-01-01T01:34:10;28.02;;;12.25;;
58468;SDS011;44257;44.804;10.220;2023-01-01T01:36:36;25.05;;;12.93;;
58468;SDS011;44257;44.804;10.220;2023-01-01T01:39:02;24.08;;;12.43;;
58468;SDS011;44257;44.804;10.220;2023-01-01T01:41:28;23.83;;;12.20;;
58468;SDS011;44257;44.804;10.220;2023-01-01T01:46:25;28.00;;;13.27;;
58468;SDS011;44257;44.804;10.220;2023-01-01T01:48:58;28.13;;;14.52;;
58468;SDS011;44257;44.804;10.220;2023-01-01T01:51:32;29.25;;;13.05;;
58468;SDS011;44257;44.804;10.220;2023-01-01T01:54:02;26.77;;;12.20;;
58468;SDS011;44257;44.804;10.220;2023-01-01T01:56:42;23.52;;;11.23;;
58468;SDS011;44257;44.804;10.220;2023-01-01T01:59:12;25.70;;;14.38;;
58468;SDS011;44257;44.804;10.220;2023-01-01T02:01:40;24.13;;;11.98;;
58468;SDS011;44257;44.804;10.220;2023-01-01T02:04:06;27.20;;;12.02;;
58468;SDS011;44257;44.804;10.220;2023-01-01T02:06:32;26.25;;;12.95;;
58468;SDS011;44257;44.804;10.220;2023-01-01T02:09:02;21.50;;;10.93;;
58468;SDS011;44257;44.804;10.220;2023-01-01T02:11:30;26.30;;;11.68;;
58468;SDS011;44257;44.804;10.220;2023-01-01T02:13:56;22.83;;;12.07;;
58468;SDS011;44257;44.804;10.220;2023-01-01T02:27:35;23.77;;;11.77;;
58468;SDS011;44257;44.804;10.220;2023-01-01T02:30:08;19.85;;;9.05;;
58468;SDS011;44257;44.804;10.220;2023-01-01T02:35:15;22.83;;;11.48;;
58468;SDS011;44257;44.804;10.220;2023-01-01T02:40:35;21.48;;;9.43;;
58468;SDS011;44257;44.804;10.220;2023-01-01T02:43:10;23.13;;;9.90;;
58468;SDS011;44257;44.804;10.220;2023-01-01T02:45:35;17.95;;;10.18;;
58468;SDS011;44257;44.804;10.220;2023-01-01T02:48:02;23.88;;;11.80;;
58468;SDS011;44257;44.804;10.220;2023-01-01T02:50:51;16.10;;;8.82;;
58468;SDS011;44257;44.804;10.220;2023-01-01T02:53:29;23.45;;;12.73;;
58468;SDS011;44257;44.804;10.220;2023-01-01T02:58:46;17.98;;;11.60;;
58468;SDS011;44257;44.804;10.220;2023-01-01T03:01:58;20.02;;;10.43;;
58468;SDS011;44257;44.804;10.220;2023-01-01T03:04:35;25.40;;;11.23;;
58468;SDS011;44257;44.804;10.220;2023-01-01T03:07:30;22.23;;;11.63;;
58468;SDS011;44257;44.804;10.220;2023-01-01T03:10:12;23.35;;;12.27;;
58468;SDS011;44257;44.804;10.220;2023-01-01T03:12:53;20.45;;;11.10;;
58468;SDS011;44257;44.804;10.220;2023-01-01T03:15:46;22.08;;;10.57;;
58468;SDS011;44257;44.804;10.220;2023-01-01T03:18:22;20.42;;;9.80;;
58468;SDS011;44257;44.804;10.220;2023-01-01T03:20:58;23.52;;;10.98;;
58468;SDS011;44257;44.804;10.220;2023-01-01T03:23:28;22.08;;;11.77;;
58468;SDS011;44257;44.804;10.220;2023-01-01T03:26:07;21.65;;;10.90;;
58468;SDS011;44257;44.804;10.220;2023-01-01T03:28:47;25.60;;;11.32;;
58468;SDS011;44257;44.804;10.220;2023-01-01T03:31:18;23.60;;;11.27;;
58468;SDS011;44257;44.804;10.220;2023-01-01T03:33:48;26.33;;;11.57;;
58468;SDS011;44257;44.804;10.220;2023-01-01T03:36:20;21.48;;;10.45;;
58468;SDS011;44257;44.804;10.220;2023-01-01T03:38:53;22.15;;;12.45;;
58468;SDS011;44257;44.804;10.220;2023-01-01T03:44:06;22.30;;;12.82;;
58468;SDS011;44257;44.804;10.220;2023-01-01T03:46:40;26.60;;;14.32;;
58468;SDS011;44257;44.804;10.220;2023-01-01T03:49:07;23.60;;;12.15;;
58468;SDS011;44257;44.804;10.220;2023-01-01T03:54:13;22.08;;;13.55;;
58468;SDS011;44257;44.804;10.220;2023-01-01T03:56:54;26.02;;;13.13;;
58468;SDS011;44257;44.804;10.220;2023-01-01T03:59:29;23.88;;;12.82;;
58468;SDS011;44257;44.804;10.220;2023-01-01T04:02:04;24.08;;;12.98;;
58468;SDS011;44257;44.804;10.220;2023-01-01T04:04:33;26.55;;;13.18;;
58468;SDS011;44257;44.804;10.220;2023-01-01T04:06:59;20.38;;;11.95;;
58468;SDS011;44257;44.804;10.220;2023-01-01T04:09:27;24.90;;;13.88;;
58468;SDS011;44257;44.804;10.220;2023-01-01T04:11:56;21.38;;;11.60;;
58468;SDS011;44257;44.804;10.220;2023-01-01T04:14:35;26.23;;;14.15;;
58468;SDS011;44257;44.804;10.220;2023-01-01T04:17:04;19.05;;;11.25;;
58468;SDS011;44257;44.804;10.220;2023-01-01T04:19:31;22.35;;;12.68;;
58468;SDS011;44257;44.804;10.220;2023-01-01T04:21:57;27.17;;;13.48;;
58468;SDS011;44257;44.804;10.220;2023-01-01T04:24:24;22.52;;;12.68;;
58468;SDS011;44257;44.804;10.220;2023-01-01T04:26:50;21.33;;;12.55;;
58468;SDS011;44257;44.804;10.220;2023-01-01T04:29:17;28.38;;;14.15;;
58468;SDS011;44257;44.804;10.220;2023-01-01T04:31:43;25.75;;;13.18;;
58468;SDS011;44257;44.804;10.220;2023-01-01T04:34:09;31.00;;;14.80;;
58468;SDS011;44257;44.804;10.220;2023-01-01T04:36:36;23.67;;;12.18;;
58468;SDS011;44257;44.804;10.220;2023-01-01T04:39:02;24.90;;;13.70;;
58468;SDS011;44257;44.804;10.220;2023-01-01T04:41:29;21.98;;;13.15;;
58468;SDS011;44257;44.804;10.220;2023-01-01T04:43:55;28.95;;;14.27;;
58468;SDS011;44257;44.804;10.220;2023-01-01T04:46:21;28.23;;;15.25;;
58468;SDS011;44257;44.804;10.220;2023-01-01T04:48:47;26.05;;;14.73;;
58468;SDS011;44257;44.804;10.220;2023-01-01T04:51:14;25.70;;;13.60;;
58468;SDS011;44257;44.804;10.220;2023-01-01T04:53:42;27.80;;;14.85;;
58468;SDS011;44257;44.804;10.220;2023-01-01T04:56:12;23.23;;;12.70;;
58468;SDS011;44257;44.804;10.220;2023-01-01T04:58:41;22.88;;;11.73;;
58468;SDS011;44257;44.804;10.220;2023-01-01T05:01:08;25.08;;;12.95;;
58468;SDS011;44257;44.804;10.220;2023-01-01T05:03:49;27.50;;;13.60;;
58468;SDS011;44257;44.804;10.220;2023-01-01T05:06:15;25.65;;;13.35;;
58468;SDS011;44257;44.804;10.220;2023-01-01T05:08:42;28.67;;;13.88;;
58468;SDS011;44257;44.804;10.220;2023-01-01T05:13:37;25.10;;;13.68;;
58468;SDS011;44257;44.804;10.220;2023-01-01T05:16:05;23.63;;;13.20;;
58468;SDS011;44257;44.804;10.220;2023-01-01T05:18:33;26.08;;;13.88;;
58468;SDS011;44257;44.804;10.220;2023-01-01T05:21:01;24.48;;;12.82;;
58468;SDS011;44257;44.804;10.220;2023-01-01T05:23:32;25.67;;;13.07;;
58468;SDS011;44257;44.804;10.220;2023-01-01T05:25:59;27.95;;;13.85;;
58468;SDS011;44257;44.804;10.220;2023-01-01T05:28:25;29.83;;;13.75;;
58468;SDS011;44257;44.804;10.220;2023-01-01T05:30:51;32.63;;;14.95;;
58468;SDS011;44257;44.804;10.220;2023-01-01T05:33:18;26.55;;;12.55;;
58468;SDS011;44257;44.804;10.220;2023-01-01T05:35:44;28.35;;;15.27;;
58468;SDS011;44257;44.804;10.220;2023-01-01T05:40:42;24.40;;;12.48;;
58468;SDS011;44257;44.804;10.220;2023-01-01T05:43:08;20.67;;;12.13;;
58468;SDS011;44257;44.804;10.220;2023-01-01T05:45:34;25.70;;;14.23;;
58468;SDS011;44257;44.804;10.220;2023-01-01T05:47:59;27.77;;;14.90;;
58468;SDS011;44257;44.804;10.220;2023-01-01T05:50:25;23.15;;;14.13;;
58468;SDS011;44257;44.804;10.220;2023-01-01T05:52:51;30.23;;;14.20;;
58468;SDS011;44257;44.804;10.220;2023-01-01T05:55:17;23.67;;;14.07;;
58468;SDS011;44257;44.804;10.220;2023-01-01T05:57:43;26.98;;;14.55;;
58468;SDS011;44257;44.804;10.220;2023-01-01T06:00:09;26.48;;;15.25;;
58468;SDS011;44257;44.804;10.220;2023-01-01T06:02:36;27.60;;;13.18;;
58468;SDS011;44257;44.804;10.220;2023-01-01T06:05:03;25.40;;;13.27;;
58468;SDS011;44257;44.804;10.220;2023-01-01T06:07:29;25.88;;;13.02;;
58468;SDS011;44257;44.804;10.220;2023-01-01T06:09:55;27.92;;;16.02;;
58468;SDS011;44257;44.804;10.220;2023-01-01T06:12:21;27.98;;;12.77;;
58468;SDS011;44257;44.804;10.220;2023-01-01T06:14:47;27.50;;;14.68;;
58468;SDS011;44257;44.804;10.220;2023-01-01T06:17:12;22.83;;;12.52;;
58468;SDS011;44257;44.804;10.220;2023-01-01T06:19:38;25.90;;;12.23;;
58468;SDS011;44257;44.804;10.220;2023-01-01T06:22:04;30.67;;;15.43;;
58468;SDS011;44257;44.804;10.220;2023-01-01T06:24:31;26.52;;;13.80;;
58468;SDS011;44257;44.804;10.220;2023-01-01T06:26:57;22.88;;;12.20;;
58468;SDS011;44257;44.804;10.220;2023-01-01T06:29:22;26.65;;;13.60;;
58468;SDS011;44257;44.804;10.220;2023-01-01T06:31:48;28.70;;;12.55;;
58468;SDS011;44257;44.804;10.220;2023-01-01T06:34:14;22.27;;;10.95;;
58468;SDS011;44257;44.804;10.220;2023-01-01T06:36:40;26.77;;;12.13;;
58468;SDS011;44257;44.804;10.220;2023-01-01T06:39:06;21.45;;;11.48;;
58468;SDS011;44257;44.804;10.220;2023-01-01T06:41:32;21.90;;;11.00;;
58468;SDS011;44257;44.804;10.220;2023-01-01T06:43:58;21.70;;;9.95;;
58468;SDS011;44257;44.804;10.220;2023-01-01T06:46:27;27.00;;;12.05;;
58468;SDS011;44257;44.804;10.220;2023-01-01T06:48:58;17.70;;;10.38;;
58468;SDS011;44257;44.804;10.220;2023-01-01T06:51:30;23.25;;;10.63;;
58468;SDS011;44257;44.804;10.220;2023-01-01T06:53:58;23.80;;;12.05;;
58468;SDS011;44257;44.804;10.220;2023-01-01T06:56:26;22.15;;;9.57;;
58468;SDS011;44257;44.804;10.220;2023-01-01T06:58:52;17.88;;;11.38;;
58468;SDS011;44257;44.804;10.220;2023-01-01T07:01:19;16.60;;;10.55;;
58468;SDS011;44257;44.804;10.220;2023-01-01T07:03:53;17.63;;;10.60;;
58468;SDS011;44257;44.804;10.220;2023-01-01T07:06:27;23.80;;;12.52;;
58468;SDS011;44257;44.804;10.220;2023-01-01T07:08:54;25.35;;;11.45;;
58468;SDS011;44257;44.804;10.220;2023-01-01T07:11:21;28.73;;;11.45;;
58468;SDS011;44257;44.804;10.220;2023-01-01T07:13:47;20.45;;;9.93;;
58468;SDS011;44257;44.804;10.220;2023-01-01T07:16:13;15.82;;;9.88;;
58468;SDS011;44257;44.804;10.220;2023-01-01T07:18:39;18.38;;;10.30;;
58468;SDS011;44257;44.804;10.220;2023-01-01T07:21:05;22.45;;;10.93;;
58468;SDS011;44257;44.804;10.220;2023-01-01T07:23:45;18.88;;;9.88;;
58468;SDS011;44257;44.804;10.220;2023-01-01T07:26:11;18.42;;;9.63;;
58468;SDS011;44257;44.804;10.220;2023-01-01T07:28:37;20.70;;;11.30;;
58468;SDS011;44257;44.804;10.220;2023-01-01T07:31:03;24.88;;;11.88;;
58468;SDS011;44257;44.804;10.220;2023-01-01T07:33:29;23.10;;;10.48;;
58468;SDS011;44257;44.804;10.220;2023-01-01T07:35:54;25.88;;;12.30;;
58468;SDS011;44257;44.804;10.220;2023-01-01T07:38:20;21.10;;;10.95;;
58468;SDS011;44257;44.804;10.220;2023-01-01T07:40:46;24.40;;;12.50;;
58468;SDS011;44257;44.804;10.220;2023-01-01T07:43:12;23.75;;;10.88;;
58468;SDS011;44257;44.804;10.220;2023-01-01T07:45:38;21.33;;;10.65;;
58468;SDS011;44257;44.804;10.220;2023-01-01T07:48:05;25.23;;;12.18;;
58468;SDS011;44257;44.804;10.220;2023-01-01T07:50:32;21.33;;;11.43;;
58468;SDS011;44257;44.804;10.220;2023-01-01T07:52:59;23.35;;;12.32;;
58468;SDS011;44257;44.804;10.220;2023-01-01T07:55:25;18.90;;;11.32;;
58468;SDS011;44257;44.804;10.220;2023-01-01T07:57:51;21.80;;;12.45;;
58468;SDS011;44257;44.804;10.220;2023-01-01T08:00:18;22.65;;;10.13;;
58468;SDS011;44257;44.804;10.220;2023-01-01T08:02:45;23.48;;;11.38;;
58468;SDS011;44257;44.804;10.220;2023-01-01T08:05:11;24.77;;;11.55;;
58468;SDS011;44257;44.804;10.220;2023-01-01T08:07:37;25.88;;;12.18;;
58468;SDS011;44257;44.804;10.220;2023-01-01T08:10:04;28.27;;;12.00;;
58468;SDS011;44257;44.804;10.220;2023-01-01T08:12:31;26.67;;;10.95;;
58468;SDS011;44257;44.804;10.220;2023-01-01T08:14:57;23.58;;;12.05;;
58468;SDS011;44257;44.804;10.220;2023-01-01T08:17:23;21.33;;;10.90;;
58468;SDS011;44257;44.804;10.220;2023-01-01T08:19:49;26.05;;;11.38;;
58468;SDS011;44257;44.804;10.220;2023-01-01T08:22:16;23.20;;;11.75;;
58468;SDS011;44257;44.804;10.220;2023-01-01T08:24:42;23.90;;;10.95;;
58468;SDS011;44257;44.804;10.220;2023-01-01T08:27:13;23.38;;;10.27;;
58468;SDS011;44257;44.804;10.220;2023-01-01T08:29:40;30.13;;;12.15;;
58468;SDS011;44257;44.804;10.220;2023-01-01T08:32:06;23.38;;;11.52;;
58468;SDS011;44257;44.804;10.220;2023-01-01T08:34:32;21.05;;;9.50;;
58468;SDS011;44257;44.804;10.220;2023-01-01T08:36:58;23.83;;;9.68;;
58468;SDS011;44257;44.804;10.220;2023-01-01T08:39:24;15.68;;;9.80;;
58468;SDS011;44257;44.804;10.220;2023-01-01T08:41:51;16.15;;;8.73;;
58468;SDS011;44257;44.804;10.220;2023-01-01T08:44:16;17.77;;;7.90;;
58468;SDS011;44257;44.804;10.220;2023-01-01T08:46:42;14.00;;;6.47;;
58468;SDS011;44257;44.804;10.220;2023-01-01T08:49:08;13.80;;;6.45;;
58468;SDS011;44257;44.804;10.220;2023-01-01T08:51:35;17.00;;;7.60;;
58468;SDS011;44257;44.804;10.220;2023-01-01T08:54:01;11.75;;;5.70;;
58468;SDS011;44257;44.804;10.220;2023-01-01T08:56:27;15.55;;;6.35;;
58468;SDS011;44257;44.804;10.220;2023-01-01T08:58:53;15.23;;;5.50;;
58468;SDS011;44257;44.804;10.220;2023-01-01T09:01:19;13.45;;;7.50;;
58468;SDS011;44257;44.804;10.220;2023-01-01T09:03:50;12.40;;;5.90;;
58468;SDS011;44257;44.804;10.220;2023-01-01T09:06:16;15.75;;;6.40;;
58468;SDS011;44257;44.804;10.220;2023-01-01T09:08:42;13.30;;;6.65;;
58468;SDS011;44257;44.804;10.220;2023-01-01T09:11:25;10.18;;;5.20;;
58468;SDS011;44257;44.804;10.220;2023-01-01T09:13:52;10.15;;;5.22;;
58468;SDS011;44257;44.804;10.220;2023-01-01T09:16:19;10.63;;;5.47;;
58468;SDS011;44257;44.804;10.220;2023-01-01T09:18:46;13.63;;;5.07;;
58468;SDS011;44257;44.804;10.220;2023-01-01T09:21:12;12.68;;;6.00;;
58468;SDS011;44257;44.804;10.220;2023-01-01T09:23:38;10.20;;;6.32;;
58468;SDS011;44257;44.804;10.220;2023-01-01T09:26:05;12.50;;;6.32;;
58468;SDS011;44257;44.804;10.220;2023-01-01T09:28:33;11.60;;;5.85;;
58468;SDS011;44257;44.804;10.220;2023-01-01T09:30:59;11.30;;;5.97;;
58468;SDS011;44257;44.804;10.220;2023-01-01T09:33:26;11.82;;;5.30;;
58468;SDS011;44257;44.804;10.220;2023-01-01T09:35:52;7.88;;;5.10;;
58468;SDS011;44257;44.804;10.220;2023-01-01T09:38:19;10.48;;;5.25;;
58468;SDS011;44257;44.804;10.220;2023-01-01T09:40:59;9.35;;;5.57;;
58468;SDS011;44257;44.804;10.220;2023-01-01T09:46:30;13.32;;;6.28;;
58468;SDS011;44257;44.804;10.220;2023-01-01T09:48:57;10.98;;;5.68;;
58468;SDS011;44257;44.804;10.220;2023-01-01T09:51:27;14.60;;;7.05;;
58468;SDS011;44257;44.804;10.220;2023-01-01T09:53:59;10.10;;;6.22;;
58468;SDS011;44257;44.804;10.220;2023-01-01T09:56:31;12.45;;;6.13;;
58468;SDS011;44257;44.804;10.220;2023-01-01T09:58:59;13.25;;;6.78;;
58468;SDS011;44257;44.804;10.220;2023-01-01T10:04:32;11.90;;;5.80;;
58468;SDS011;44257;44.804;10.220;2023-01-01T10:15:26;8.32;;;5.30;;
58468;SDS011;44257;44.804;10.220;2023-01-01T10:17:59;8.77;;;5.18;;
58468;SDS011;44257;44.804;10.220;2023-01-01T10:20:35;15.73;;;7.43;;
58468;SDS011;44257;44.804;10.220;2023-01-01T10:26:15;10.00;;;5.88;;
58468;SDS011;44257;44.804;10.220;2023-01-01T10:31:35;10.30;;;5.85;;
58468;SDS011;44257;44.804;10.220;2023-01-01T10:34:19;9.88;;;6.57;;
58468;SDS011;44257;44.804;10.220;2023-01-01T10:39:17;10.45;;;5.70;;
58468;SDS011;44257;44.804;10.220;2023-01-01T10:41:44;9.60;;;5.65;;
58468;SDS011;44257;44.804;10.220;2023-01-01T10:44:10;13.35;;;5.90;;
58468;SDS011;44257;44.804;10.220;2023-01-01T10:46:39;12.70;;;5.57;;
58468;SDS011;44257;44.804;10.220;2023-01-01T10:49:09;13.05;;;6.72;;
58468;SDS011;44257;44.804;10.220;2023-01-01T10:51:37;13.07;;;6.85;;
58468;SDS011;44257;44.804;10.220;2023-01-01T10:57:19;10.80;;;5.47;;
58468;SDS011;44257;44.804;10.220;2023-01-01T11:00:05;10.68;;;5.57;;
58468;SDS011;44257;44.804;10.220;2023-01-01T11:02:33;12.50;;;6.75;;
58468;SDS011;44257;44.804;10.220;2023-01-01T11:05:15;12.40;;;6.35;;
58468;SDS011;44257;44.804;10.220;2023-01-01T11:07:43;10.27;;;6.75;;
58468;SDS011;44257;44.804;10.220;2023-01-01T11:10:42;10.57;;;6.30;;
58468;SDS011;44257;44.804;10.220;2023-01-01T11:13:01;16.55;;;8.45;;
58468;SDS011;44257;44.804;10.220;2023-01-01T11:18:04;10.23;;;6.43;;
58468;SDS011;44257;44.804;10.220;2023-01-01T11:20:41;13.82;;;6.50;;
58468;SDS011;44257;44.804;10.220;2023-01-01T11:28:24;11.25;;;6.80;;
58468;SDS011;44257;44.804;10.220;2023-01-01T11:31:04;13.05;;;6.80;;
58468;SDS011;44257;44.804;10.220;2023-01-01T11:33:45;11.55;;;5.38;;
58468;SDS011;44257;44.804;10.220;2023-01-01T11:39:19;11.35;;;5.78;;
58468;SDS011;44257;44.804;10.220;2023-01-01T11:41:52;12.18;;;6.60;;
58468;SDS011;44257;44.804;10.220;2023-01-01T11:44:37;14.25;;;6.10;;
58468;SDS011;44257;44.804;10.220;2023-01-01T11:47:06;18.15;;;6.35;;
58468;SDS011;44257;44.804;10.220;2023-01-01T11:49:52;13.65;;;7.32;;
58468;SDS011;44257;44.804;10.220;2023-01-01T11:52:45;15.07;;;7.63;;
58468;SDS011;44257;44.804;10.220;2023-01-01T11:55:21;13.73;;;6.82;;
58468;SDS011;44257;44.804;10.220;2023-01-01T12:00:34;15.20;;;8.07;;
58468;SDS011;44257;44.804;10.220;2023-01-01T12:08:47;14.32;;;7.10;;
58468;SDS011;44257;44.804;10.220;2023-01-01T12:11:24;16.20;;;8.15;;
58468;SDS011;44257;44.804;10.220;2023-01-01T12:13:58;15.63;;;7.47;;
58468;SDS011;44257;44.804;10.220;2023-01-01T12:16:38;16.70;;;9.20;;
58468;SDS011;44257;44.804;10.220;2023-01-01T12:19:19;16.67;;;7.57;;
58468;SDS011;44257;44.804;10.220;2023-01-01T12:21:50;14.65;;;7.20;;
58468;SDS011;44257;44.804;10.220;2023-01-01T12:24:21;14.77;;;7.25;;
58468;SDS011;44257;44.804;10.220;2023-01-01T12:32:58;16.90;;;9.32;;
58468;SDS011;44257;44.804;10.220;2023-01-01T12:40:43;14.10;;;7.78;;
58468;SDS011;44257;44.804;10.220;2023-01-01T12:51:27;17.67;;;8.07;;
58468;SDS011;44257;44.804;10.220;2023-01-01T12:59:50;12.93;;;7.38;;
58468;SDS011;44257;44.804;10.220;2023-01-01T13:02:20;14.85;;;8.32;;
58468;SDS011;44257;44.804;10.220;2023-01-01T13:04:51;13.43;;;6.70;;
58468;SDS011;44257;44.804;10.220;2023-01-01T13:07:30;15.23;;;7.80;;
58468;SDS011;44257;44.804;10.220;2023-01-01T13:10:22;12.05;;;6.72;;
58468;SDS011;44257;44.804;10.220;2023-01-01T13:12:49;11.35;;;7.63;;
58468;SDS011;44257;44.804;10.220;2023-01-01T13:18:05;15.35;;;7.57;;
58468;SDS011;44257;44.804;10.220;2023-01-01T13:20:37;15.10;;;8.17;;
58468;SDS011;44257;44.804;10.220;2023-01-01T13:45:24;15.90;;;7.75;;
58468;SDS011;44257;44.804;10.220;2023-01-01T13:50:38;16.60;;;7.85;;
58468;SDS011;44257;44.804;10.220;2023-01-01T14:03:40;14.77;;;8.13;;
58468;SDS011;44257;44.804;10.220;2023-01-01T14:06:11;18.45;;;8.98;;
58468;SDS011;44257;44.804;10.220;2023-01-01T14:08:59;18.48;;;8.98;;
58468;SDS011;44257;44.804;10.220;2023-01-01T14:11:46;16.02;;;9.57;;
58468;SDS011;44257;44.804;10.220;2023-01-01T14:14:22;16.00;;;9.68;;
58468;SDS011;44257;44.804;10.220;2023-01-01T14:16:56;13.55;;;8.60;;
58468;SDS011;44257;44.804;10.220;2023-01-01T14:19:24;16.63;;;7.53;;
58468;SDS011;44257;44.804;10.220;2023-01-01T14:21:51;19.90;;;10.52;;
58468;SDS011;44257;44.804;10.220;2023-01-01T14:24:19;14.63;;;9.18;;
58468;SDS011;44257;44.804;10.220;2023-01-01T14:26:46;9.93;;;7.10;;
58468;SDS011;44257;44.804;10.220;2023-01-01T14:29:22;18.92;;;8.27;;
58468;SDS011;44257;44.804;10.220;2023-01-01T14:31:52;14.20;;;8.05;;
58468;SDS011;44257;44.804;10.220;2023-01-01T14:34:26;16.08;;;9.25;;
58468;SDS011;44257;44.804;10.220;2023-01-01T14:36:54;19.15;;;8.68;;
58468;SDS011;44257;44.804;10.220;2023-01-01T14:39:26;18.98;;;9.65;;
58468;SDS011;44257;44.804;10.220;2023-01-01T14:42:01;18.50;;;10.10;;
58468;SDS011;44257;44.804;10.220;2023-01-01T14:44:31;15.40;;;8.25;;
58468;SDS011;44257;44.804;10.220;2023-01-01T14:47:17;16.90;;;9.43;;
58468;SDS011;44257;44.804;10.220;2023-01-01T14:49:46;15.70;;;8.70;;
58468;SDS011;44257;44.804;10.220;2023-01-01T14:52:14;19.90;;;9.80;;
58468;SDS011;44257;44.804;10.220;2023-01-01T14:54:51;17.02;;;10.45;;
58468;SDS011;44257;44.804;10.220;2023-01-01T14:57:22;16.13;;;9.07;;
58468;SDS011;44257;44.804;10.220;2023-01-01T14:59:51;16.35;;;9.93;;
58468;SDS011;44257;44.804;10.220;2023-01-01T15:02:21;15.00;;;8.10;;
58468;SDS011;44257;44.804;10.220;2023-01-01T15:04:49;16.10;;;8.65;;
58468;SDS011;44257;44.804;10.220;2023-01-01T15:07:33;17.15;;;10.43;;
58468;SDS011;44257;44.804;10.220;2023-01-01T15:10:00;19.17;;;9.20;;
58468;SDS011;44257;44.804;10.220;2023-01-01T15:12:27;18.70;;;9.00;;
58468;SDS011;44257;44.804;10.220;2023-01-01T15:14:55;18.38;;;10.32;;
58468;SDS011;44257;44.804;10.220;2023-01-01T15:17:23;18.17;;;8.50;;
58468;SDS011;44257;44.804;10.220;2023-01-01T15:22:43;18.55;;;7.03;;
58468;SDS011;44257;44.804;10.220;2023-01-01T15:25:13;16.70;;;8.75;;
58468;SDS011;44257;44.804;10.220;2023-01-01T15:27:40;14.50;;;8.20;;
58468;SDS011;44257;44.804;10.220;2023-01-01T15:32:54;17.90;;;9.80;;
58468;SDS011;44257;44.804;10.220;2023-01-01T15:35:26;18.30;;;8.50;;
58468;SDS011;44257;44.804;10.220;2023-01-01T15:37:56;15.77;;;8.48;;
58468;SDS011;44257;44.804;10.220;2023-01-01T15:45:20;16.40;;;9.50;;
58468;SDS011;44257;44.804;10.220;2023-01-01T15:47:47;16.85;;;9.05;;
58468;SDS011;44257;44.804;10.220;2023-01-01T15:52:49;13.70;;;7.40;;
58468;SDS011;44257;44.804;10.220;2023-01-01T15:55:19;11.88;;;7.50;;
58468;SDS011;44257;44.804;10.220;2023-01-01T15:57:46;11.68;;;7.65;;
58468;SDS011;44257;44.804;10.220;2023-01-01T16:00:21;14.25;;;7.05;;
58468;SDS011;44257;44.804;10.220;2023-01-01T16:03:00;13.80;;;8.52;;
58468;SDS011;44257;44.804;10.220;2023-01-01T16:05:46;17.80;;;9.25;;
58468;SDS011;44257;44.804;10.220;2023-01-01T16:08:16;13.13;;;8.57;;
58468;SDS011;44257;44.804;10.220;2023-01-01T16:10:44;15.75;;;8.40;;
58468;SDS011;44257;44.804;10.220;2023-01-01T16:13:10;16.77;;;8.77;;
58468;SDS011;44257;44.804;10.220;2023-01-01T16:15:37;16.02;;;8.30;;
58468;SDS011;44257;44.804;10.220;2023-01-01T16:18:24;15.70;;;8.20;;
58468;SDS011;44257;44.804;10.220;2023-01-01T16:20:55;12.25;;;6.85;;
58468;SDS011;44257;44.804;10.220;2023-01-01T16:23:21;13.75;;;7.95;;
58468;SDS011;44257;44.804;10.220;2023-01-01T16:25:47;11.23;;;6.82;;
58468;SDS011;44257;44.804;10.220;2023-01-01T16:28:13;14.80;;;8.00;;
58468;SDS011;44257;44.804;10.220;2023-01-01T16:30:39;14.43;;;7.10;;
58468;SDS011;44257;44.804;10.220;2023-01-01T16:33:09;14.95;;;8.15;;
58468;SDS011;44257;44.804;10.220;2023-01-01T16:35:41;12.10;;;7.13;;
58468;SDS011;44257;44.804;10.220;2023-01-01T16:38:08;14.68;;;7.40;;
58468;SDS011;44257;44.804;10.220;2023-01-01T16:40:35;9.73;;;6.18;;
58468;SDS011;44257;44.804;10.220;2023-01-01T16:43:01;18.40;;;7.57;;
58468;SDS011;44257;44.804;10.220;2023-01-01T16:45:29;14.27;;;7.88;;
58468;SDS011;44257;44.804;10.220;2023-01-01T16:47:55;16.05;;;7.38;;
58468;SDS011;44257;44.804;10.220;2023-01-01T16:50:21;13.20;;;7.13;;
58468;SDS011;44257;44.804;10.220;2023-01-01T16:52:47;15.88;;;7.50;;
58468;SDS011;44257;44.804;10.220;2023-01-01T16:55:13;14.40;;;7.78;;
58468;SDS011;44257;44.804;10.220;2023-01-01T16:57:39;15.07;;;8.77;;
58468;SDS011;44257;44.804;10.220;2023-01-01T17:00:06;17.92;;;8.98;;
58468;SDS011;44257;44.804;10.220;2023-01-01T17:02:33;18.08;;;7.97;;
58468;SDS011;44257;44.804;10.220;2023-01-01T17:04:59;17.30;;;7.55;;